createdAt,value
2022-12-09T16:40:00.618Z,92.83
2022-12-09T16:42:36.503Z,92.80
2022-12-09T16:45:31.425Z,91.73
2022-12-09T16:48:06.034Z,91.76
2022-12-09T16:50:40.528Z,91.46
2022-12-09T16:53:18.934Z,90.06
2022-12-09T16:55:55.812Z,90.35
2022-12-09T16:58:24.908Z,90.17
2022-12-09T17:00:54.014Z,90.78
2022-12-09T17:03:34.173Z,89.41
2022-12-09T17:06:03.000Z,89.87
2022-12-09T17:08:31.852Z,90.11
2022-12-09T17:11:02.731Z,89.16
2022-12-09T17:13:31.492Z,89.33
2022-12-09T17:16:01.151Z,88.53
2022-12-09T17:18:30.804Z,89.16
2022-12-09T17:21:04.034Z,89.09
2022-12-09T17:23:39.197Z,89.00
2022-12-09T17:26:14.148Z,89.26
2022-12-09T17:28:44.794Z,89.32
2022-12-09T17:31:16.391Z,89.74
2022-12-09T17:33:45.346Z,88.97
2022-12-09T17:36:22.564Z,88.96
2022-12-09T17:38:55.409Z,88.73
2022-12-09T17:41:26.095Z,89.23
2022-12-09T17:44:01.186Z,88.58
2022-12-09T17:46:30.138Z,89.26
2022-12-09T17:49:06.990Z,88.23
2022-12-09T17:51:36.675Z,89.20
2022-12-09T17:54:14.189Z,88.78
2022-12-09T17:56:46.127Z,88.82
2022-12-09T17:59:16.895Z,88.95
2022-12-09T18:01:54.297Z,89.11
2022-12-09T18:04:23.243Z,88.95
2022-12-09T18:06:51.957Z,88.77
2022-12-09T18:09:26.068Z,88.44
2022-12-09T18:11:56.882Z,88.41
2022-12-09T18:14:49.359Z,88.81
2022-12-09T18:17:33.373Z,88.91
2022-12-09T18:20:57.454Z,88.47
2022-12-09T18:23:29.852Z,88.82
2022-12-09T18:26:08.351Z,88.14
2022-12-09T18:28:47.647Z,88.49
2022-12-09T18:31:23.929Z,88.47
2022-12-09T18:33:56.419Z,88.42
2022-12-09T18:36:28.264Z,88.12
2022-12-09T18:38:57.286Z,88.81
2022-12-09T18:41:28.612Z,87.81
2022-12-09T18:44:04.084Z,87.60
2022-12-09T18:46:35.807Z,87.66
2022-12-09T18:49:07.122Z,87.85
2022-12-09T18:51:36.221Z,87.98
2022-12-09T18:54:59.682Z,88.15
2022-12-09T18:57:03.277Z,88.42
2022-12-09T18:59:34.256Z,87.84
2022-12-09T19:02:03.086Z,88.08
2022-12-09T19:04:32.103Z,88.34
2022-12-09T19:07:01.893Z,88.32
2022-12-09T19:09:34.132Z,88.53
2022-12-09T19:12:30.039Z,88.10
2022-12-09T19:14:55.380Z,88.77
2022-12-09T19:17:24.185Z,88.47
2022-12-09T19:19:52.943Z,87.64
2022-12-09T19:22:22.015Z,87.62
2022-12-09T19:24:50.767Z,87.39
2022-12-09T19:27:19.470Z,87.35
2022-12-09T19:29:48.238Z,87.83
2022-12-09T19:32:51.373Z,87.75
2022-12-09T19:35:08.854Z,87.74
2022-12-09T19:37:37.654Z,87.89
2022-12-09T19:40:08.904Z,87.43
2022-12-09T19:42:39.135Z,87.25
2022-12-09T19:45:13.908Z,88.04
2022-12-09T19:47:45.892Z,87.36
2022-12-09T19:50:14.687Z,87.74
2022-12-09T19:52:43.697Z,87.28
2022-12-09T20:11:35.027Z,87.45
2022-12-09T20:14:06.301Z,89.11
2022-12-09T20:16:35.579Z,89.94
2022-12-09T20:19:05.019Z,90.51
2022-12-09T20:21:34.698Z,90.46
2022-12-09T20:24:04.492Z,90.64
2022-12-09T20:26:41.900Z,90.82
2022-12-09T20:29:12.460Z,90.42
2022-12-09T20:31:44.584Z,91.01
2022-12-09T20:34:17.427Z,90.76
2022-12-09T20:36:51.911Z,91.89
2022-12-09T20:39:22.474Z,91.84
2022-12-09T20:41:55.142Z,91.69
2022-12-09T20:44:23.843Z,92.04
2022-12-09T20:47:00.405Z,92.18
2022-12-09T20:49:29.672Z,91.64
2022-12-09T20:51:58.668Z,92.51
2022-12-09T20:54:27.545Z,91.96
2022-12-09T20:56:58.291Z,92.22
2022-12-09T20:59:27.084Z,92.34
2022-12-09T21:01:56.062Z,91.99
2022-12-09T21:04:25.316Z,92.18
2022-12-09T21:06:54.326Z,91.99
2022-12-09T21:09:26.443Z,92.20
2022-12-09T21:11:57.384Z,92.30
2022-12-09T21:14:32.840Z,92.24
2022-12-09T21:17:02.348Z,92.01
2022-12-09T21:19:33.877Z,92.46
2022-12-09T21:22:03.482Z,91.72
2022-12-09T21:24:32.524Z,91.20
2022-12-09T21:27:03.260Z,92.06
2022-12-09T21:29:32.605Z,92.12
2022-12-09T21:32:02.466Z,92.25
2022-12-09T21:34:31.471Z,92.38
2022-12-09T21:37:00.715Z,92.80
2022-12-09T21:39:29.951Z,92.38
2022-12-09T21:41:59.032Z,92.69
2022-12-09T21:44:30.103Z,92.09
2022-12-09T21:47:00.905Z,92.99
2022-12-09T21:49:32.748Z,92.59
2022-12-09T21:52:05.751Z,92.02
2022-12-09T21:54:34.751Z,92.64
2022-12-09T21:57:09.682Z,92.69
2022-12-09T21:59:44.146Z,92.58
2022-12-09T22:02:14.801Z,92.22
2022-12-09T22:04:48.925Z,92.06
2022-12-09T22:07:22.749Z,92.49
2022-12-09T22:09:52.264Z,92.65
2022-12-09T22:12:24.945Z,92.62
2022-12-09T22:14:57.872Z,92.45
2022-12-09T22:17:30.769Z,92.79
2022-12-09T22:20:33.211Z,92.32
2022-12-09T22:22:48.472Z,91.92
2022-12-09T22:25:17.427Z,92.48
2022-12-09T22:27:46.251Z,92.26
2022-12-09T22:30:17.529Z,91.45
2022-12-09T22:32:50.913Z,91.71
2022-12-09T22:35:27.511Z,92.16
2022-12-09T22:37:59.136Z,91.78
2022-12-09T22:40:27.882Z,92.21
2022-12-09T22:42:56.939Z,92.05
2022-12-09T22:45:27.624Z,91.88
2022-12-09T22:47:56.687Z,91.28
2022-12-09T22:50:25.742Z,91.25
2022-12-09T22:52:54.469Z,90.90
2022-12-09T22:55:23.247Z,90.77
2022-12-09T22:57:53.109Z,90.95
2022-12-09T23:00:26.312Z,91.47
2022-12-09T23:02:57.324Z,91.09
2022-12-09T23:05:29.134Z,91.10
2022-12-09T23:08:02.088Z,91.73
2022-12-09T23:10:30.910Z,91.89
2022-12-09T23:12:59.984Z,91.88
2022-12-09T23:15:28.819Z,92.30
2022-12-09T23:17:59.448Z,91.54
2022-12-09T23:20:28.827Z,91.55
2022-12-09T23:22:57.686Z,92.22
2022-12-09T23:25:26.567Z,91.80
2022-12-09T23:27:55.291Z,92.33
2022-12-09T23:30:24.123Z,92.11
2022-12-09T23:32:52.813Z,92.55
2022-12-09T23:35:23.433Z,92.58
2022-12-09T23:37:52.162Z,92.86
2022-12-09T23:40:20.911Z,93.01
2022-12-09T23:42:53.571Z,92.91
2022-12-09T23:45:22.304Z,92.67
2022-12-09T23:47:50.965Z,92.85
2022-12-09T23:50:20.064Z,92.79
2022-12-09T23:52:52.861Z,92.73
2022-12-09T23:55:21.517Z,92.82
2022-12-09T23:57:50.211Z,92.47
